Time;durP1;ratioP1;P1;durP2;ratioP2;P2;SDS_P1;SDS_P2;PMS_P1;PMS_P2;Temp;Humidity;BMP_temperature;BMP_pressure;BME280_temperature;BME280_humidity;BME280_pressure;Samples;Min_cycle;Max_cycle;Signal;HPM_P1;HPM_P2
2022/08/12 00:43:25;;;;;;;0.05;0.05;;;26.50;59.00;;;;;;4160782;28;20054;-65
2022/08/12 00:48:29;;;;;;;0.05;0.05;;;26.50;58.30;;;;;;4180597;28;20051;-65
2022/08/12 00:50:54;;;;;;;0.00;0.00;;;26.50;58.40;;;;;;4193284;28;20045;-64
2022/08/12 00:53:17;;;;;;;0.00;0.00;;;26.50;58.40;;;;;;4193735;28;20494;-64
2022/08/12 00:55:45;;;;;;;0.00;0.00;;;26.50;58.50;;;;;;4193362;28;20052;-63
2022/08/12 00:58:09;;;;;;;0.00;0.00;;;26.50;58.50;;;;;;4192901;28;20110;-64
2022/08/12 01:00:34;;;;;;;0.00;0.00;;;26.50;58.50;;;;;;4193152;28;20052;-64
2022/08/12 01:02:58;;;;;;;0.03;0.03;;;26.50;58.50;;;;;;4184587;28;20492;-64
2022/08/12 01:13:27;;;;;;;1.30;0.65;;;26.40;58.50;;;;;;4184407;28;20090;-64
2022/08/12 01:15:51;;;;;;;0.05;0.05;;;26.40;58.60;;;;;;4169965;28;20049;-64
2022/08/12 01:18:13;;;;;;;0.00;0.00;;;26.40;58.60;;;;;;4172244;28;20047;-64
2022/08/12 01:20:42;;;;;;;0.00;0.00;;;26.40;58.70;;;;;;4171163;28;20056;-64
2022/08/12 01:23:19;;;;;;;0.00;0.00;;;26.40;58.70;;;;;;4171720;28;20060;-64
2022/08/12 01:25:46;;;;;;;0.00;0.00;;;26.40;58.70;;;;;;4175422;28;20128;-64
2022/08/12 01:28:20;;;;;;;0.00;0.00;;;26.40;58.70;;;;;;4176507;28;20051;-63
2022/08/12 01:30:44;;;;;;;0.00;0.00;;;26.40;58.80;;;;;;4173722;28;20542;-64
2022/08/12 01:33:12;;;;;;;4.60;0.63;;;26.30;58.70;;;;;;4173650;28;20142;-64
2022/08/12 01:35:35;;;;;;;0.00;0.00;;;26.30;58.80;;;;;;4179857;28;20103;-64
2022/08/12 01:37:59;;;;;;;0.28;0.28;;;26.30;58.80;;;;;;4173858;28;20082;-64
2022/08/12 01:40:27;;;;;;;0.00;0.00;;;26.30;58.90;;;;;;4173744;28;20095;-63
2022/08/12 01:43:00;;;;;;;0.00;0.00;;;26.30;58.90;;;;;;4173615;28;20060;-65
2022/08/12 01:45:24;;;;;;;0.00;0.00;;;26.30;59.60;;;;;;4175681;28;20056;-65
2022/08/12 01:48:03;;;;;;;0.15;0.15;;;26.30;58.90;;;;;;4175817;28;20048;-65
2022/08/12 01:50:36;;;;;;;0.00;0.00;;;26.30;59.00;;;;;;4176444;28;20076;-64
2022/08/12 01:53:07;;;;;;;0.00;0.00;;;26.30;59.10;;;;;;4159169;28;20144;-64
2022/08/12 01:55:32;;;;;;;0.10;0.10;;;26.30;59.10;;;;;;4159546;28;20151;-64
2022/08/12 01:58:06;;;;;;;0.10;0.10;;;26.30;59.20;;;;;;4158042;28;20088;-65
2022/08/12 02:00:47;;;;;;;1.15;1.05;;;26.20;59.10;;;;;;4171100;28;20044;-64
2022/08/12 02:03:26;;;;;;;0.10;0.10;;;26.20;59.20;;;;;;4162921;28;20115;-64
2022/08/12 02:11:28;;;;;;;0.20;0.20;;;26.10;59.30;;;;;;4173571;28;20055;-65
2022/08/12 02:14:05;;;;;;;0.05;0.05;;;26.20;59.40;;;;;;4174756;28;20056;-65
2022/08/12 02:16:57;;;;;;;0.00;0.00;;;26.10;59.40;;;;;;4175171;28;20131;-64
2022/08/12 02:19:34;;;;;;;0.00;0.00;;;26.10;59.50;;;;;;4169888;28;20056;-64
2022/08/12 02:22:11;;;;;;;0.00;0.00;;;26.10;59.50;;;;;;4175469;28;20164;-64
2022/08/12 02:24:37;;;;;;;0.00;0.00;;;26.10;59.50;;;;;;4175296;28;20060;-64
2022/08/12 02:27:00;;;;;;;0.00;0.00;;;26.10;59.60;;;;;;4173152;28;20136;-65
2022/08/12 02:29:25;;;;;;;0.00;0.00;;;26.10;59.60;;;;;;4174909;28;20068;-64
2022/08/12 02:31:48;;;;;;;0.10;0.10;;;26.10;59.60;;;;;;4174557;28;20079;-64
2022/08/12 02:34:11;;;;;;;0.00;0.00;;;26.10;59.70;;;;;;4160316;28;20048;-65
2022/08/12 02:36:34;;;;;;;0.00;0.00;;;26.00;59.70;;;;;;4158750;28;20092;-64
2022/08/12 02:38:57;;;;;;;0.00;0.00;;;26.00;59.70;;;;;;4158970;28;20099;-65
2022/08/12 02:41:25;;;;;;;0.00;0.00;;;26.00;59.80;;;;;;4173839;28;20114;-65
2022/08/12 02:43:52;;;;;;;0.10;0.10;;;26.00;59.70;;;;;;4189283;28;20059;-64
2022/08/12 02:46:21;;;;;;;0.00;0.00;;;26.00;59.80;;;;;;4191974;28;20056;-65
2022/08/12 02:48:47;;;;;;;0.00;0.00;;;26.00;59.80;;;;;;4191902;28;20056;-65
2022/08/12 02:51:12;;;;;;;0.00;0.00;;;26.00;59.90;;;;;;4192335;28;20102;-64
2022/08/12 02:53:37;;;;;;;0.00;0.00;;;25.90;59.90;;;;;;4188379;28;20099;-64
2022/08/12 02:56:02;;;;;;;0.30;0.30;;;25.90;59.90;;;;;;4174203;28;20047;-64
2022/08/12 02:58:26;;;;;;;0.00;0.00;;;25.90;60.00;;;;;;4174857;28;20041;-64
2022/08/12 03:00:54;;;;;;;0.05;0.05;;;25.90;60.00;;;;;;4175966;28;20056;-64
2022/08/12 03:03:21;;;;;;;0.00;0.00;;;25.90;60.00;;;;;;4175154;28;20084;-65
2022/08/12 03:05:50;;;;;;;0.25;0.25;;;25.90;60.10;;;;;;4178123;28;20183;-65
2022/08/12 03:08:15;;;;;;;0.00;0.00;;;25.90;60.10;;;;;;4191784;28;20048;-65
2022/08/12 03:10:50;;;;;;;0.00;0.00;;;25.90;60.20;;;;;;4191698;28;20049;-65
2022/08/12 03:13:14;;;;;;;0.00;0.00;;;25.90;60.20;;;;;;4190144;28;20044;-66
2022/08/12 03:15:36;;;;;;;0.00;0.00;;;25.80;60.10;;;;;;4189796;28;20086;-65
2022/08/12 03:18:03;;;;;;;0.00;0.00;;;25.80;60.30;;;;;;4183773;28;20048;-65
2022/08/12 03:20:46;;;;;;;0.00;0.00;;;25.80;60.30;;;;;;4195142;28;20135;-65
2022/08/12 03:23:11;;;;;;;0.00;0.00;;;25.80;60.40;;;;;;4194236;28;20106;-65
2022/08/12 03:25:40;;;;;;;0.00;0.00;;;25.80;60.40;;;;;;4171403;28;20730;-65
2022/08/12 03:28:03;;;;;;;0.00;0.00;;;25.80;60.60;;;;;;4177798;28;20052;-65
2022/08/12 03:30:27;;;;;;;0.00;0.00;;;25.80;60.60;;;;;;4176480;28;20052;-65
2022/08/12 03:32:51;;;;;;;0.30;0.30;;;25.80;60.60;;;;;;4174846;28;20053;-65
2022/08/12 03:35:24;;;;;;;0.00;0.00;;;25.80;60.60;;;;;;4194596;28;20441;-64
2022/08/12 03:38:05;;;;;;;0.20;0.20;;;25.80;60.80;;;;;;4194023;28;20056;-65
2022/08/12 04:02:27;;;;;;;0.00;0.00;;;25.70;61.00;;;;;;4126592;28;20053;-65
2022/08/12 04:04:49;;;;;;;1.35;0.45;;;25.70;60.90;;;;;;4152988;28;25059;-65
2022/08/12 04:07:13;;;;;;;0.00;0.00;;;25.70;61.00;;;;;;4179212;28;20131;-65
2022/08/12 04:09:38;;;;;;;0.00;0.00;;;25.70;60.90;;;;;;4177738;28;20057;-65
2022/08/12 04:14:40;;;;;;;0.00;0.00;;;25.70;61.00;;;;;;4177588;28;20045;-64
2022/08/12 04:17:03;;;;;;;0.20;0.20;;;25.60;61.10;;;;;;4182919;28;20044;-65
2022/08/12 04:19:25;;;;;;;0.30;0.30;;;25.70;61.20;;;;;;4194218;28;20127;-65
2022/08/12 04:21:47;;;;;;;0.08;0.08;;;25.60;61.10;;;;;;4183407;28;20235;-65
2022/08/12 04:24:24;;;;;;;0.20;0.20;;;25.60;61.10;;;;;;4184718;28;20125;-65
2022/08/12 04:26:48;;;;;;;0.43;0.38;;;25.60;61.10;;;;;;4193994;28;20063;-65
2022/08/12 04:29:10;;;;;;;0.28;0.28;;;25.60;61.20;;;;;;4193127;28;20783;-65
2022/08/12 04:31:36;;;;;;;0.00;0.00;;;25.60;61.20;;;;;;4189616;28;20484;-65
2022/08/12 04:33:58;;;;;;;0.00;0.00;;;25.60;61.20;;;;;;4171756;28;20071;-65
2022/08/12 04:36:20;;;;;;;0.00;0.00;;;25.60;61.30;;;;;;4177425;28;20075;-65
2022/08/12 04:38:43;;;;;;;0.30;0.30;;;25.60;61.20;;;;;;4177025;28;20098;-65
2022/08/12 04:41:06;;;;;;;0.00;0.00;;;25.60;61.30;;;;;;4177505;28;20049;-64
2022/08/12 04:43:30;;;;;;;0.00;0.00;;;25.60;61.30;;;;;;4189812;28;20072;-65
2022/08/12 04:46:12;;;;;;;0.00;0.00;;;25.60;61.20;;;;;;4193520;28;20392;-65
2022/08/12 04:48:34;;;;;;;0.57;0.55;;;25.60;61.40;;;;;;4193096;28;20225;-65
2022/08/12 04:50:56;;;;;;;0.00;0.00;;;25.60;61.20;;;;;;4193691;28;20047;-65
2022/08/12 04:53:19;;;;;;;0.00;0.00;;;25.60;61.10;;;;;;4176713;28;20392;-67
2022/08/12 04:55:44;;;;;;;0.00;0.00;;;25.60;61.20;;;;;;4177081;28;20120;-65
2022/08/12 04:58:06;;;;;;;0.55;0.47;;;25.50;61.60;;;;;;4176859;28;20099;-65
2022/08/12 05:00:30;;;;;;;0.00;0.00;;;25.50;61.70;;;;;;4159413;28;20071;-64
2022/08/12 05:02:52;;;;;;;0.00;0.00;;;25.50;61.50;;;;;;4166696;28;20076;-66
2022/08/12 05:05:19;;;;;;;0.32;0.32;;;25.60;61.50;;;;;;4171276;28;20064;-64
2022/08/12 05:07:41;;;;;;;0.00;0.00;;;25.50;61.40;;;;;;4168935;28;20057;-65
2022/08/12 05:10:09;;;;;;;0.15;0.15;;;25.50;61.40;;;;;;4167641;28;20053;-65
2022/08/12 05:12:36;;;;;;;0.10;0.10;;;25.50;61.30;;;;;;4173922;28;20053;-65
2022/08/12 05:14:59;;;;;;;0.75;0.52;;;25.50;61.40;;;;;;4186029;28;20098;-65
2022/08/12 05:17:25;;;;;;;0.00;0.00;;;25.50;61.40;;;;;;4192074;28;20059;-65
2022/08/12 05:19:49;;;;;;;0.20;0.20;;;25.50;61.30;;;;;;4161992;28;20057;-64
2022/08/12 05:22:10;;;;;;;0.10;0.10;;;25.50;61.20;;;;;;4175721;28;20079;-66
2022/08/12 05:24:32;;;;;;;0.00;0.00;;;25.50;61.20;;;;;;4166868;28;20044;-64
2022/08/12 05:26:54;;;;;;;0.00;0.00;;;25.50;61.20;;;;;;4176335;28;20056;-65
2022/08/12 05:29:16;;;;;;;0.00;0.00;;;25.50;61.00;;;;;;4159766;28;20057;-65
2022/08/12 05:31:59;;;;;;;0.00;0.00;;;25.50;61.00;;;;;;4184365;28;20110;-64
2022/08/12 05:34:22;;;;;;;0.00;0.00;;;25.50;61.10;;;;;;4176162;28;20056;-64
2022/08/12 05:36:47;;;;;;;0.00;0.00;;;25.50;61.00;;;;;;4176031;28;20103;-64
2022/08/12 05:39:09;;;;;;;0.00;0.00;;;25.50;60.90;;;;;;4173429;28;20055;-65
2022/08/12 05:41:35;;;;;;;0.00;0.00;;;25.50;60.90;;;;;;4174349;28;20136;-65
2022/08/12 05:43:58;;;;;;;0.10;0.10;;;25.50;60.70;;;;;;4175864;28;20094;-65
2022/08/12 05:46:22;;;;;;;0.00;0.00;;;25.50;60.50;;;;;;4159795;28;20048;-65
2022/08/12 05:48:44;;;;;;;2.05;0.90;;;25.60;60.60;;;;;;4158869;28;20477;-65
2022/08/12 05:51:10;;;;;;;0.00;0.00;;;25.50;60.40;;;;;;4174662;28;20059;-65
2022/08/12 05:53:32;;;;;;;0.00;0.00;;;25.50;60.30;;;;;;4174732;28;20076;-65
2022/08/12 05:55:54;;;;;;;0.57;0.32;;;25.50;60.50;;;;;;4173417;28;20118;-64
2022/08/12 05:58:16;;;;;;;0.00;0.00;;;25.50;60.30;;;;;;4175384;28;20056;-65
2022/08/12 06:00:38;;;;;;;0.45;0.45;;;25.50;60.40;;;;;;4175722;28;20053;-64
2022/08/12 06:03:00;;;;;;;0.00;0.00;;;25.50;61.40;;;;;;4159258;28;20073;-65
2022/08/12 06:05:23;;;;;;;0.47;0.47;;;25.50;60.60;;;;;;4158801;28;20463;-66
2022/08/12 06:07:48;;;;;;;0.20;0.20;;;25.50;60.60;;;;;;4158961;28;20053;-64
2022/08/12 06:10:24;;;;;;;0.00;0.00;;;25.60;61.50;;;;;;4173331;28;20091;-64
2022/08/12 06:12:55;;;;;;;0.52;0.52;;;25.60;60.50;;;;;;4157269;28;20072;-65
2022/08/12 06:15:18;;;;;;;0.65;0.65;;;25.60;60.40;;;;;;4158804;28;20060;-65
2022/08/12 06:17:40;;;;;;;0.00;0.00;;;25.60;60.30;;;;;;4168502;28;20098;-64
2022/08/12 06:20:02;;;;;;;0.00;0.00;;;25.60;60.30;;;;;;4172935;28;20055;-64
2022/08/12 06:22:46;;;;;;;0.00;0.00;;;25.60;60.30;;;;;;4173602;28;20049;-64
2022/08/12 06:25:09;;;;;;;0.10;0.10;;;25.60;60.30;;;;;;4175457;28;20075;-64
2022/08/12 06:27:31;;;;;;;0.00;0.00;;;25.60;60.30;;;;;;4159175;28;20127;-64
2022/08/12 06:29:53;;;;;;;0.32;0.32;;;25.60;60.40;;;;;;4159020;28;20062;-65
2022/08/12 06:32:31;;;;;;;0.00;0.00;;;25.60;61.40;;;;;;4158574;28;20515;-64
2022/08/12 06:34:55;;;;;;;0.28;0.28;;;25.60;60.50;;;;;;4175755;28;22196;-64
2022/08/12 06:37:40;;;;;;;0.40;0.40;;;25.60;60.50;;;;;;4175118;28;20451;-64
2022/08/12 06:40:05;;;;;;;0.10;0.05;;;25.60;60.30;;;;;;4173511;28;20045;-64
2022/08/12 06:45:07;;;;;;;0.10;0.10;;;25.70;60.30;;;;;;4175176;28;20512;-64
2022/08/12 06:47:36;;;;;;;0.15;0.15;;;25.70;60.10;;;;;;4174292;28;20128;-64
2022/08/12 06:49:58;;;;;;;0.10;0.10;;;25.70;60.10;;;;;;4159762;28;20055;-64
2022/08/12 06:52:23;;;;;;;0.00;0.00;;;25.80;60.10;;;;;;4193301;27;20597;-64
2022/08/12 06:54:46;;;;;;;0.00;0.00;;;25.80;60.00;;;;;;4182950;28;20098;-63
2022/08/12 06:57:09;;;;;;;0.00;0.00;;;25.80;59.90;;;;;;4179265;28;20055;-64
2022/08/12 06:59:50;;;;;;;0.00;0.00;;;25.90;59.90;;;;;;4180743;28;20098;-64
2022/08/12 07:02:13;;;;;;;1.08;0.85;;;25.90;59.90;;;;;;4180442;28;20061;-64
2022/08/12 07:04:37;;;;;;;0.00;0.00;;;25.90;59.70;;;;;;4180586;28;20036;-67
2022/08/12 07:07:00;;;;;;;0.10;0.10;;;25.90;59.70;;;;;;4178750;28;20118;-67
2022/08/12 07:09:22;;;;;;;1.42;1.33;;;26.00;59.60;;;;;;4179953;28;20514;-66
2022/08/12 07:12:04;;;;;;;0.00;0.00;;;26.00;59.50;;;;;;4180318;28;20040;-67
2022/08/12 07:14:28;;;;;;;0.00;0.00;;;26.10;59.40;;;;;;4180550;28;20403;-67
2022/08/12 07:17:00;;;;;;;0.22;0.22;;;26.10;59.30;;;;;;4179332;28;20516;-67
2022/08/12 07:19:23;;;;;;;1.30;1.25;;;26.20;59.30;;;;;;4180686;28;20496;-66
2022/08/12 07:21:46;;;;;;;0.00;0.00;;;26.20;59.10;;;;;;4180050;28;20131;-66
2022/08/12 07:24:16;;;;;;;0.00;0.00;;;26.30;59.20;;;;;;4180575;28;20972;-66
2022/08/12 07:26:40;;;;;;;0.00;0.00;;;26.30;59.10;;;;;;4179590;28;20118;-66
2022/08/12 07:29:03;;;;;;;0.00;0.00;;;26.30;58.90;;;;;;4180011;28;20049;-70
2022/08/12 07:31:29;;;;;;;0.10;0.10;;;26.40;59.10;;;;;;4180478;28;20131;-63
2022/08/12 07:33:52;;;;;;;0.00;0.00;;;26.40;59.30;;;;;;4180467;28;20787;-67
2022/08/12 07:36:14;;;;;;;0.00;0.00;;;26.40;59.40;;;;;;4180643;28;20057;-68
2022/08/12 07:38:41;;;;;;;0.00;0.00;;;26.50;59.30;;;;;;4180188;28;20499;-67
2022/08/12 07:41:09;;;;;;;0.32;0.32;;;26.60;59.30;;;;;;4180565;28;20052;-67
2022/08/12 07:43:38;;;;;;;0.22;0.22;;;26.60;59.10;;;;;;4180021;28;20056;-68
2022/08/12 07:46:01;;;;;;;2.40;0.65;;;26.60;59.00;;;;;;4163815;28;20064;-68
2022/08/12 07:48:25;;;;;;;0.00;0.00;;;26.70;59.00;;;;;;4163629;28;20420;-68
2022/08/12 07:50:47;;;;;;;0.00;0.00;;;26.70;58.90;;;;;;4163588;28;20136;-67
2022/08/12 07:53:09;;;;;;;0.17;0.17;;;26.70;58.80;;;;;;4163720;28;20575;-67
2022/08/12 07:55:31;;;;;;;0.00;0.00;;;26.80;59.50;;;;;;4163675;28;20393;-67
2022/08/12 07:57:57;;;;;;;0.20;0.20;;;26.80;58.70;;;;;;4163785;28;20489;-67
2022/08/12 08:00:20;;;;;;;0.17;0.17;;;26.80;58.60;;;;;;4168141;28;20045;-64
2022/08/12 08:02:42;;;;;;;0.93;0.93;;;26.80;58.50;;;;;;4177713;28;20659;-64
2022/08/12 08:05:07;;;;;;;1.13;0.80;;;26.90;58.50;;;;;;4178017;28;20128;-67
2022/08/12 08:07:29;;;;;;;0.00;0.00;;;26.90;58.50;;;;;;4177424;28;20052;-64
2022/08/12 08:09:56;;;;;;;0.00;0.00;;;26.90;58.30;;;;;;4176982;28;20476;-64
2022/08/12 08:14:59;;;;;;;0.00;0.00;;;26.90;58.20;;;;;;4177270;28;20044;-64
2022/08/12 08:17:21;;;;;;;0.00;0.00;;;26.90;58.20;;;;;;4176933;28;20408;-64
2022/08/12 08:19:51;;;;;;;0.00;0.00;;;26.90;58.10;;;;;;4177436;28;20055;-64
2022/08/12 08:22:25;;;;;;;0.00;0.00;;;27.00;57.90;;;;;;4177115;28;20079;-64
2022/08/12 08:24:57;;;;;;;0.00;0.00;;;27.00;57.90;;;;;;4177109;28;20492;-64
2022/08/12 08:27:20;;;;;;;0.32;0.32;;;27.00;57.80;;;;;;4177098;28;20131;-64
2022/08/12 08:29:44;;;;;;;0.38;0.38;;;27.00;57.80;;;;;;4177383;28;20041;-64
2022/08/12 08:32:08;;;;;;;0.65;0.17;;;27.10;57.70;;;;;;4176051;28;20044;-64
2022/08/12 08:34:30;;;;;;;0.00;0.00;;;27.10;57.70;;;;;;4176985;28;20052;-63
2022/08/12 08:37:14;;;;;;;0.00;0.00;;;27.10;57.70;;;;;;4175916;28;20049;-64
2022/08/12 08:39:40;;;;;;;0.03;0.03;;;27.10;58.40;;;;;;4176790;28;20579;-64
2022/08/12 08:44:42;;;;;;;0.00;0.00;;;27.20;57.60;;;;;;4159344;28;20123;-63
2022/08/12 08:47:04;;;;;;;0.00;0.00;;;27.20;57.60;;;;;;4160627;28;20046;-64
2022/08/12 08:49:26;;;;;;;0.10;0.10;;;27.20;57.60;;;;;;4159861;28;20076;-64
2022/08/12 08:51:49;;;;;;;0.00;0.00;;;27.20;57.60;;;;;;4176870;28;20495;-64
2022/08/12 08:54:12;;;;;;;0.00;0.00;;;27.30;57.60;;;;;;4176873;28;20504;-64
2022/08/12 08:56:42;;;;;;;0.00;0.00;;;27.30;57.50;;;;;;4177152;28;20550;-64
2022/08/12 08:59:04;;;;;;;0.00;0.00;;;27.30;57.50;;;;;;4176690;28;20048;-64
2022/08/12 09:01:26;;;;;;;0.08;0.08;;;27.30;57.50;;;;;;4176412;28;20155;-64
2022/08/12 09:03:57;;;;;;;;;;;27.30;57.50;;;;;;4174316;28;20614;-63
2022/08/12 09:06:41;;;;;;;0.05;0.05;;;27.40;57.40;;;;;;4176885;28;19932;-64
2022/08/12 09:09:16;;;;;;;0.00;0.00;;;27.40;57.20;;;;;;4175319;28;20049;-63
2022/08/12 09:14:29;;;;;;;0.03;0.03;;;27.50;57.00;;;;;;4184922;28;20476;-64
2022/08/12 09:16:51;;;;;;;0.00;0.00;;;27.50;57.00;;;;;;4193133;28;20467;-64
2022/08/12 09:19:13;;;;;;;0.00;0.00;;;27.50;57.00;;;;;;4193087;28;20450;-63
2022/08/12 09:21:48;;;;;;;0.15;0.15;;;27.60;57.00;;;;;;4190640;28;20052;-63
2022/08/12 09:24:18;;;;;;;0.10;0.10;;;27.60;57.00;;;;;;4185677;28;20144;-63
2022/08/12 09:26:42;;;;;;;0.57;0.47;;;27.70;56.90;;;;;;4157799;28;20068;-65
2022/08/12 09:29:07;;;;;;;0.00;0.00;;;27.70;56.80;;;;;;4158069;28;20068;-64
2022/08/12 09:31:34;;;;;;;0.35;0.35;;;27.70;56.90;;;;;;4158013;28;20142;-63
2022/08/12 09:34:15;;;;;;;0.20;0.20;;;27.80;56.80;;;;;;4169940;28;20108;-63
2022/08/12 09:36:47;;;;;;;2.55;0.73;;;27.80;56.70;;;;;;4173635;28;20179;-63
2022/08/12 09:39:19;;;;;;;0.00;0.00;;;27.90;56.30;;;;;;4169614;28;20084;-63
2022/08/12 09:47:44;;;;;;;0.00;0.00;;;28.00;56.00;;;;;;4160980;28;20053;-64
2022/08/12 09:50:07;;;;;;;0.10;0.10;;;28.00;56.00;;;;;;4157428;28;20060;-64
2022/08/12 09:52:28;;;;;;;0.00;0.00;;;28.00;56.00;;;;;;4157582;28;20570;-63
2022/08/12 09:54:53;;;;;;;0.00;0.00;;;28.10;56.00;;;;;;4156588;28;20056;-63
2022/08/12 09:57:23;;;;;;;0.00;0.00;;;28.10;55.60;;;;;;4173533;28;20553;-63
2022/08/12 10:00:07;;;;;;;0.47;0.47;;;28.10;55.40;;;;;;4156122;28;20478;-63
2022/08/12 10:17:53;;;;;;;0.00;0.00;;;28.30;54.30;;;;;;4404100;24;21737;-68
2022/08/12 10:20:18;;;;;;;0.20;0.20;;;28.40;53.70;;;;;;3954788;29;20142;-66
2022/08/12 10:22:40;;;;;;;0.20;0.20;;;28.40;53.90;;;;;;3954013;29;20089;-66
2022/08/12 10:30:26;;;;;;;0.65;0.63;;;28.50;53.90;;;;;;3968297;29;20063;-67
2022/08/12 10:33:04;;;;;;;0.00;0.00;;;28.50;53.50;;;;;;3968296;29;20350;-67
2022/08/12 10:35:30;;;;;;;0.00;0.00;;;28.50;53.30;;;;;;3968659;29;20050;-67
2022/08/12 10:38:01;;;;;;;0.00;0.00;;;28.50;53.40;;;;;;3968610;29;20050;-67
2022/08/12 10:46:17;;;;;;;3.40;0.75;;;28.60;52.60;;;;;;3968660;29;20050;-67
2022/08/12 10:48:40;;;;;;;3.55;0.47;;;28.60;52.80;;;;;;3969099;29;20054;-67
2022/08/12 10:51:04;;;;;;;0.10;0.10;;;28.70;52.90;;;;;;3967597;29;20135;-66
2022/08/12 10:53:46;;;;;;;0.22;0.22;;;28.70;52.90;;;;;;3966743;29;20143;-67
2022/08/12 10:56:10;;;;;;;0.10;0.10;;;28.70;52.20;;;;;;3967083;29;20058;-66
2022/08/12 10:58:35;;;;;;;0.03;0.03;;;28.80;52.30;;;;;;3968934;29;20079;-67
2022/08/12 11:00:57;;;;;;;0.00;0.00;;;28.80;52.10;;;;;;3968225;29;20139;-67
2022/08/12 11:03:41;;;;;;;0.00;0.00;;;28.80;51.60;;;;;;3954689;29;20047;-67
2022/08/12 11:06:23;;;;;;;0.00;0.00;;;28.80;51.20;;;;;;3966970;29;20126;-67
2022/08/12 11:09:05;;;;;;;0.00;0.00;;;28.90;51.50;;;;;;3954719;29;20518;-67
2022/08/12 11:11:29;;;;;;;0.10;0.10;;;28.90;51.60;;;;;;3967930;29;20061;-67
2022/08/12 11:14:11;;;;;;;0.00;0.00;;;28.90;51.80;;;;;;3968728;29;20054;-67
2022/08/12 11:16:55;;;;;;;0.00;0.00;;;28.90;51.80;;;;;;3967372;29;20054;-67
2022/08/12 11:19:41;;;;;;;0.00;0.00;;;28.90;51.80;;;;;;3968547;29;20051;-67
2022/08/12 11:22:04;;;;;;;0.00;0.00;;;28.90;50.80;;;;;;3967251;29;20134;-66
2022/08/12 11:24:27;;;;;;;0.00;0.00;;;29.00;50.40;;;;;;3968265;29;20680;-67
2022/08/12 11:26:52;;;;;;;0.05;0.05;;;29.00;50.30;;;;;;3967127;29;20473;-67
2022/08/12 11:29:14;;;;;;;0.00;0.00;;;29.00;51.00;;;;;;3954927;29;20063;-67
2022/08/12 11:31:43;;;;;;;0.08;0.08;;;29.00;51.00;;;;;;3966468;29;20058;-67
2022/08/12 11:34:18;;;;;;;0.00;0.00;;;29.00;50.90;;;;;;3968161;29;20058;-67
2022/08/12 11:37:03;;;;;;;0.10;0.10;;;29.10;50.10;;;;;;3967231;29;20387;-67
2022/08/12 11:39:25;;;;;;;0.10;0.10;;;29.10;50.60;;;;;;3971003;29;20058;-68
2022/08/12 11:41:50;;;;;;;0.00;0.00;;;29.20;50.40;;;;;;3971553;29;20058;-67
2022/08/12 11:44:13;;;;;;;0.25;0.25;;;29.10;50.00;;;;;;3971301;29;20107;-67
2022/08/12 11:46:53;;;;;;;0.00;0.00;;;29.20;50.30;;;;;;3969775;29;20065;-67
2022/08/12 11:49:15;;;;;;;0.00;0.00;;;29.20;50.40;;;;;;3970640;29;20058;-67
2022/08/12 11:51:41;;;;;;;0.00;0.00;;;29.20;49.90;;;;;;3971411;29;20143;-67
2022/08/12 11:54:05;;;;;;;0.32;0.32;;;29.20;49.70;;;;;;3970825;29;20081;-67
2022/08/12 11:56:28;;;;;;;0.22;0.22;;;29.20;49.70;;;;;;3970605;29;20470;-67
2022/08/12 11:58:59;;;;;;;0.00;0.00;;;29.20;49.70;;;;;;3956575;29;20081;-67
2022/08/12 12:01:42;;;;;;;0.00;0.00;;;29.30;49.70;;;;;;3970923;29;20050;-67
2022/08/12 12:04:24;;;;;;;0.28;0.28;;;29.30;49.70;;;;;;3970677;29;20403;-67
2022/08/12 12:06:50;;;;;;;0.00;0.00;;;29.30;49.30;;;;;;3956085;29;20121;-67
2022/08/12 12:09:15;;;;;;;0.00;0.00;;;29.30;49.20;;;;;;3970970;29;20094;-66
2022/08/12 12:11:38;;;;;;;0.00;0.00;;;29.30;49.00;;;;;;3971064;29;20563;-67
2022/08/12 12:14:10;;;;;;;0.00;0.00;;;29.40;48.90;;;;;;3970657;29;20414;-67
2022/08/12 12:16:32;;;;;;;0.00;0.00;;;29.30;48.30;;;;;;3968735;29;20061;-67
2022/08/12 12:18:58;;;;;;;0.08;0.08;;;29.40;47.30;;;;;;3970282;29;20059;-67
2022/08/12 12:21:20;;;;;;;0.00;0.00;;;29.50;47.30;;;;;;3956733;29;20065;-67
2022/08/12 12:24:03;;;;;;;0.08;0.08;;;29.40;46.50;;;;;;3970134;29;20896;-68
2022/08/12 12:26:26;;;;;;;0.22;0.22;;;29.50;48.00;;;;;;3955438;29;20054;-67
2022/08/12 12:28:56;;;;;;;0.00;0.00;;;29.50;48.10;;;;;;3970417;29;20624;-68
2022/08/12 12:31:18;;;;;;;0.03;0.03;;;29.50;47.90;;;;;;3968955;29;20054;-67
2022/08/12 12:34:00;;;;;;;0.10;0.10;;;29.50;48.20;;;;;;3970147;29;21093;-68
2022/08/12 12:36:23;;;;;;;0.00;0.00;;;29.60;47.00;;;;;;3968473;29;20414;-67
2022/08/12 12:38:49;;;;;;;0.00;0.00;;;29.50;47.60;;;;;;3970305;29;20065;-67
2022/08/12 12:41:12;;;;;;;0.10;0.10;;;29.60;47.60;;;;;;3969849;29;20051;-68
2022/08/12 12:43:36;;;;;;;0.00;0.00;;;29.60;47.10;;;;;;3970156;29;20074;-68
2022/08/12 12:46:04;;;;;;;0.00;0.00;;;29.60;47.30;;;;;;3954603;29;20149;-67
2022/08/12 12:48:26;;;;;;;0.00;0.00;;;29.60;46.80;;;;;;3968007;29;20082;-68
2022/08/12 12:51:14;;;;;;;2.75;1.02;;;29.70;46.20;;;;;;3969168;29;20507;-68
2022/08/12 12:53:33;;;;;;;0.00;0.00;;;29.70;45.30;;;;;;3969058;29;20456;-68
2022/08/12 12:56:19;;;;;;;0.00;0.00;;;29.70;45.20;;;;;;3969760;29;20051;-67
2022/08/12 12:58:43;;;;;;;0.00;0.00;;;29.70;45.70;;;;;;3954593;29;20499;-68
2022/08/12 13:01:05;;;;;;;0.00;0.00;;;29.70;45.50;;;;;;3956578;29;20135;-67
2022/08/12 13:03:45;;;;;;;0.00;0.00;;;29.80;44.70;;;;;;3969429;29;20066;-67
2022/08/12 13:06:10;;;;;;;0.00;0.00;;;29.80;45.20;;;;;;3969423;29;20046;-68
2022/08/12 13:08:32;;;;;;;0.00;0.00;;;29.80;45.30;;;;;;3970166;29;20522;-66
2022/08/12 13:10:59;;;;;;;0.20;0.20;;;29.80;45.60;;;;;;3969635;29;20482;-66
2022/08/12 13:13:21;;;;;;;0.00;0.00;;;29.80;45.40;;;;;;3967532;29;20063;-66
2022/08/12 13:16:06;;;;;;;0.13;0.13;;;29.80;45.50;;;;;;3969139;29;20502;-66
2022/08/12 13:18:36;;;;;;;0.00;0.00;;;29.80;44.60;;;;;;3969997;29;20055;-66
2022/08/12 13:20:58;;;;;;;0.00;0.00;;;29.90;45.00;;;;;;3967641;29;20134;-66
2022/08/12 13:23:21;;;;;;;0.00;0.00;;;29.90;44.70;;;;;;3969135;29;20059;-66
2022/08/12 13:25:57;;;;;;;1.02;0.57;;;29.90;44.60;;;;;;3955262;29;20575;-66
2022/08/12 13:28:23;;;;;;;0.00;0.00;;;29.90;43.20;;;;;;3969097;29;20054;-67
2022/08/12 13:30:51;;;;;;;0.30;0.30;;;30.00;43.20;;;;;;3968488;29;20415;-68
2022/08/12 13:33:15;;;;;;;0.20;0.20;;;30.00;43.70;;;;;;3969842;29;20083;-67
2022/08/12 13:35:39;;;;;;;0.00;0.00;;;30.00;43.70;;;;;;3969259;29;20047;-66
2022/08/12 13:38:33;;;;;;;0.10;0.10;;;30.00;44.20;;;;;;3966875;29;20054;-67
2022/08/12 13:40:57;;;;;;;0.00;0.00;;;30.00;44.10;;;;;;3968929;29;20161;-67
2022/08/12 13:43:19;;;;;;;0.00;0.00;;;30.00;43.80;;;;;;3968774;29;20165;-67
2022/08/12 13:46:01;;;;;;;0.00;0.00;;;30.00;44.10;;;;;;3968363;29;20054;-66
2022/08/12 13:48:24;;;;;;;0.15;0.15;;;30.10;44.00;;;;;;3968155;29;20059;-67
2022/08/12 13:50:49;;;;;;;0.00;0.00;;;30.10;44.00;;;;;;3969220;29;20069;-66
2022/08/12 13:53:16;;;;;;;0.20;0.20;;;30.10;43.80;;;;;;3968969;29;20050;-66
2022/08/12 13:55:50;;;;;;;0.00;0.00;;;30.10;44.00;;;;;;3967364;29;20396;-66
2022/08/12 13:58:21;;;;;;;0.05;0.05;;;30.10;43.20;;;;;;3968745;29;20055;-67
2022/08/12 14:00:45;;;;;;;0.00;0.00;;;30.10;42.90;;;;;;3967292;29;20058;-67
2022/08/12 14:03:07;;;;;;;0.00;0.00;;;30.10;43.00;;;;;;3952928;29;20110;-66
2022/08/12 14:05:33;;;;;;;0.57;0.32;;;30.20;42.50;;;;;;3955678;29;20055;-67
2022/08/12 14:08:01;;;;;;;0.00;0.00;;;30.20;43.10;;;;;;3955413;30;20666;-66
2022/08/12 14:10:37;;;;;;;0.20;0.20;;;30.20;43.30;;;;;;3941268;30;20063;-66
2022/08/12 14:13:00;;;;;;;0.00;0.00;;;30.20;43.50;;;;;;3927452;30;20490;-65
2022/08/12 14:15:22;;;;;;;0.00;0.00;;;30.30;43.50;;;;;;3942734;30;20081;-65
2022/08/12 14:17:48;;;;;;;0.00;0.00;;;30.30;43.60;;;;;;3946246;30;20054;-65
2022/08/12 14:20:13;;;;;;;0.00;0.00;;;30.30;43.40;;;;;;3955759;30;20086;-65
2022/08/12 14:22:36;;;;;;;0.00;0.00;;;30.30;43.50;;;;;;3955584;30;20632;-65
2022/08/12 14:25:00;;;;;;;0.00;0.00;;;30.30;43.60;;;;;;3955399;29;20160;-64
2022/08/12 14:27:27;;;;;;;0.00;0.00;;;30.30;43.00;;;;;;3942188;30;20078;-64
2022/08/12 14:30:00;;;;;;;1.48;1.38;;;30.30;42.70;;;;;;3955248;29;20104;-67
2022/08/12 14:32:27;;;;;;;0.00;0.00;;;30.30;43.50;;;;;;3954920;29;20469;-68
2022/08/12 14:34:50;;;;;;;0.10;0.10;;;30.40;43.30;;;;;;3954768;30;20520;-66
2022/08/12 14:37:12;;;;;;;0.10;0.10;;;30.40;43.00;;;;;;3953356;30;20053;-66
2022/08/12 14:39:55;;;;;;;0.00;0.00;;;30.40;43.70;;;;;;3955611;29;20082;-67
2022/08/12 14:42:18;;;;;;;0.10;0.10;;;30.40;42.80;;;;;;3955783;30;20067;-67
2022/08/12 14:44:40;;;;;;;0.00;0.00;;;30.40;42.20;;;;;;3955851;29;20054;-66
2022/08/12 14:47:19;;;;;;;0.00;0.00;;;30.40;41.90;;;;;;3955074;30;20551;-64
2022/08/12 14:49:41;;;;;;;0.00;0.00;;;30.40;41.90;;;;;;3955822;29;20047;-68
2022/08/12 14:52:24;;;;;;;0.00;0.00;;;30.40;42.20;;;;;;3955102;29;20078;-65
2022/08/12 14:55:08;;;;;;;0.00;0.00;;;30.50;42.80;;;;;;3955137;29;20059;-64